sensor_id;sensor_type;location;lat;lon;timestamp;P1;durP1;ratioP1;P2;durP2;ratioP2
9080;SDS011;13509;50.760;6.080;2023-04-06T00:02:26;14.70;;;7.67;;
9080;SDS011;13509;50.760;6.080;2023-04-06T00:04:54;12.70;;;7.30;;
9080;SDS011;13509;50.760;6.080;2023-04-06T00:07:22;11.20;;;7.03;;
9080;SDS011;13509;50.760;6.080;2023-04-06T00:09:51;9.03;;;7.00;;
9080;SDS011;13509;50.760;6.080;2023-04-06T00:12:19;16.13;;;6.97;;
9080;SDS011;13509;50.760;6.080;2023-04-06T00:14:47;9.50;;;6.90;;
9080;SDS011;13509;50.760;6.080;2023-04-06T00:17:17;13.60;;;6.87;;
9080;SDS011;13509;50.760;6.080;2023-04-06T00:19:45;11.13;;;7.23;;
9080;SDS011;13509;50.760;6.080;2023-04-06T00:22:14;12.37;;;6.90;;
9080;SDS011;13509;50.760;6.080;2023-04-06T00:24:42;12.10;;;6.77;;
9080;SDS011;13509;50.760;6.080;2023-04-06T00:27:10;13.33;;;7.73;;
9080;SDS011;13509;50.760;6.080;2023-04-06T00:29:39;12.10;;;6.90;;
9080;SDS011;13509;50.760;6.080;2023-04-06T00:32:07;16.43;;;8.13;;
9080;SDS011;13509;50.760;6.080;2023-04-06T00:34:37;13.03;;;7.57;;
9080;SDS011;13509;50.760;6.080;2023-04-06T00:37:05;14.43;;;7.47;;
9080;SDS011;13509;50.760;6.080;2023-04-06T00:39:34;13.67;;;7.60;;
9080;SDS011;13509;50.760;6.080;2023-04-06T00:42:04;14.73;;;7.93;;
9080;SDS011;13509;50.760;6.080;2023-04-06T00:44:35;16.27;;;7.87;;
9080;SDS011;13509;50.760;6.080;2023-04-06T00:47:03;12.97;;;6.90;;
9080;SDS011;13509;50.760;6.080;2023-04-06T00:49:32;11.00;;;7.17;;
9080;SDS011;13509;50.760;6.080;2023-04-06T00:52:01;11.87;;;7.10;;
9080;SDS011;13509;50.760;6.080;2023-04-06T00:54:29;16.03;;;7.37;;
9080;SDS011;13509;50.760;6.080;2023-04-06T00:56:58;13.10;;;7.60;;
9080;SDS011;13509;50.760;6.080;2023-04-06T00:59:27;12.97;;;7.23;;
9080;SDS011;13509;50.760;6.080;2023-04-06T01:01:55;11.97;;;7.87;;
9080;SDS011;13509;50.760;6.080;2023-04-06T01:04:24;13.90;;;7.90;;
9080;SDS011;13509;50.760;6.080;2023-04-06T01:06:52;12.73;;;7.43;;
9080;SDS011;13509;50.760;6.080;2023-04-06T01:09:22;15.87;;;7.63;;
9080;SDS011;13509;50.760;6.080;2023-04-06T01:11:50;13.37;;;7.83;;
9080;SDS011;13509;50.760;6.080;2023-04-06T01:14:18;16.17;;;7.83;;
9080;SDS011;13509;50.760;6.080;2023-04-06T01:16:47;12.77;;;7.73;;
9080;SDS011;13509;50.760;6.080;2023-04-06T01:19:15;14.00;;;7.70;;
9080;SDS011;13509;50.760;6.080;2023-04-06T01:21:43;12.83;;;7.43;;
9080;SDS011;13509;50.760;6.080;2023-04-06T01:24:13;13.83;;;7.97;;
9080;SDS011;13509;50.760;6.080;2023-04-06T01:26:41;12.27;;;7.03;;
9080;SDS011;13509;50.760;6.080;2023-04-06T01:29:09;12.73;;;7.07;;
9080;SDS011;13509;50.760;6.080;2023-04-06T01:31:38;14.07;;;7.73;;
9080;SDS011;13509;50.760;6.080;2023-04-06T01:34:06;15.07;;;8.07;;
9080;SDS011;13509;50.760;6.080;2023-04-06T01:36:35;11.23;;;7.43;;
9080;SDS011;13509;50.760;6.080;2023-04-06T01:39:03;16.60;;;7.80;;
9080;SDS011;13509;50.760;6.080;2023-04-06T01:41:33;14.33;;;8.10;;
9080;SDS011;13509;50.760;6.080;2023-04-06T01:44:01;14.20;;;7.63;;
9080;SDS011;13509;50.760;6.080;2023-04-06T01:46:30;14.27;;;8.07;;
9080;SDS011;13509;50.760;6.080;2023-04-06T01:48:58;14.43;;;7.90;;
9080;SDS011;13509;50.760;6.080;2023-04-06T01:51:26;13.43;;;7.77;;
9080;SDS011;13509;50.760;6.080;2023-04-06T01:53:54;11.47;;;7.57;;
9080;SDS011;13509;50.760;6.080;2023-04-06T01:56:23;13.30;;;7.80;;
9080;SDS011;13509;50.760;6.080;2023-04-06T01:58:52;14.40;;;8.27;;
9080;SDS011;13509;50.760;6.080;2023-04-06T02:01:21;16.97;;;8.33;;
9080;SDS011;13509;50.760;6.080;2023-04-06T02:03:50;12.70;;;7.73;;
9080;SDS011;13509;50.760;6.080;2023-04-06T02:06:18;17.27;;;7.57;;
9080;SDS011;13509;50.760;6.080;2023-04-06T02:08:46;13.77;;;7.80;;
9080;SDS011;13509;50.760;6.080;2023-04-06T02:11:15;13.03;;;7.37;;
9080;SDS011;13509;50.760;6.080;2023-04-06T02:13:43;14.33;;;7.47;;
9080;SDS011;13509;50.760;6.080;2023-04-06T02:16:13;11.80;;;7.30;;
9080;SDS011;13509;50.760;6.080;2023-04-06T02:18:42;12.67;;;7.10;;
9080;SDS011;13509;50.760;6.080;2023-04-06T02:21:10;13.00;;;7.10;;
9080;SDS011;13509;50.760;6.080;2023-04-06T02:23:38;13.77;;;6.23;;
9080;SDS011;13509;50.760;6.080;2023-04-06T02:26:07;14.13;;;7.20;;
9080;SDS011;13509;50.760;6.080;2023-04-06T02:28:35;16.43;;;7.40;;
9080;SDS011;13509;50.760;6.080;2023-04-06T02:31:03;11.53;;;7.10;;
9080;SDS011;13509;50.760;6.080;2023-04-06T02:33:33;14.13;;;7.30;;
9080;SDS011;13509;50.760;6.080;2023-04-06T02:36:01;12.47;;;7.47;;
9080;SDS011;13509;50.760;6.080;2023-04-06T02:38:30;12.43;;;7.63;;
9080;SDS011;13509;50.760;6.080;2023-04-06T02:40:58;13.13;;;7.07;;
9080;SDS011;13509;50.760;6.080;2023-04-06T02:43:26;13.63;;;6.87;;
9080;SDS011;13509;50.760;6.080;2023-04-06T02:45:54;13.40;;;7.33;;
9080;SDS011;13509;50.760;6.080;2023-04-06T02:48:23;10.63;;;6.50;;
9080;SDS011;13509;50.760;6.080;2023-04-06T02:50:52;11.57;;;6.60;;
9080;SDS011;13509;50.760;6.080;2023-04-06T02:53:21;11.53;;;7.23;;
9080;SDS011;13509;50.760;6.080;2023-04-06T02:55:50;11.57;;;6.50;;
9080;SDS011;13509;50.760;6.080;2023-04-06T02:58:18;13.63;;;7.57;;
9080;SDS011;13509;50.760;6.080;2023-04-06T03:00:46;12.30;;;6.80;;
9080;SDS011;13509;50.760;6.080;2023-04-06T03:03:14;13.90;;;7.57;;
9080;SDS011;13509;50.760;6.080;2023-04-06T03:05:43;13.33;;;6.93;;
9080;SDS011;13509;50.760;6.080;2023-04-06T03:08:12;13.67;;;7.50;;
9080;SDS011;13509;50.760;6.080;2023-04-06T03:10:41;11.63;;;6.70;;
9080;SDS011;13509;50.760;6.080;2023-04-06T03:13:09;12.57;;;7.27;;
9080;SDS011;13509;50.760;6.080;2023-04-06T03:15:38;15.73;;;7.37;;
9080;SDS011;13509;50.760;6.080;2023-04-06T03:18:06;13.43;;;6.63;;
9080;SDS011;13509;50.760;6.080;2023-04-06T03:20:35;10.30;;;6.47;;
9080;SDS011;13509;50.760;6.080;2023-04-06T03:23:03;12.53;;;6.37;;
9080;SDS011;13509;50.760;6.080;2023-04-06T03:25:34;13.63;;;6.63;;
9080;SDS011;13509;50.760;6.080;2023-04-06T03:28:03;11.57;;;6.87;;
9080;SDS011;13509;50.760;6.080;2023-04-06T03:30:31;13.50;;;7.00;;
9080;SDS011;13509;50.760;6.080;2023-04-06T03:32:59;10.03;;;5.83;;
9080;SDS011;13509;50.760;6.080;2023-04-06T03:35:27;12.67;;;6.73;;
9080;SDS011;13509;50.760;6.080;2023-04-06T03:37:56;12.57;;;6.40;;
9080;SDS011;13509;50.760;6.080;2023-04-06T03:40:24;13.03;;;6.90;;
9080;SDS011;13509;50.760;6.080;2023-04-06T03:42:54;11.30;;;6.77;;
9080;SDS011;13509;50.760;6.080;2023-04-06T03:45:22;13.23;;;6.63;;
9080;SDS011;13509;50.760;6.080;2023-04-06T03:47:51;11.93;;;6.80;;
9080;SDS011;13509;50.760;6.080;2023-04-06T03:50:19;13.53;;;5.93;;
9080;SDS011;13509;50.760;6.080;2023-04-06T03:52:47;11.43;;;6.60;;
9080;SDS011;13509;50.760;6.080;2023-04-06T03:55:16;13.27;;;6.47;;
9080;SDS011;13509;50.760;6.080;2023-04-06T03:57:44;10.97;;;6.33;;
9080;SDS011;13509;50.760;6.080;2023-04-06T04:00:14;10.03;;;6.10;;
9080;SDS011;13509;50.760;6.080;2023-04-06T04:02:42;16.00;;;7.03;;
9080;SDS011;13509;50.760;6.080;2023-04-06T04:05:11;12.97;;;6.83;;
9080;SDS011;13509;50.760;6.080;2023-04-06T04:07:39;14.87;;;6.93;;
9080;SDS011;13509;50.760;6.080;2023-04-06T04:10:08;10.27;;;6.67;;
9080;SDS011;13509;50.760;6.080;2023-04-06T04:12:36;15.03;;;6.90;;
9080;SDS011;13509;50.760;6.080;2023-04-06T04:15:05;9.93;;;6.10;;
9080;SDS011;13509;50.760;6.080;2023-04-06T04:17:35;10.23;;;6.30;;
9080;SDS011;13509;50.760;6.080;2023-04-06T04:20:03;12.53;;;6.50;;
9080;SDS011;13509;50.760;6.080;2023-04-06T04:22:31;13.17;;;7.30;;
9080;SDS011;13509;50.760;6.080;2023-04-06T04:25:00;14.23;;;7.40;;
9080;SDS011;13509;50.760;6.080;2023-04-06T04:27:28;12.37;;;6.50;;
9080;SDS011;13509;50.760;6.080;2023-04-06T04:29:56;14.40;;;6.90;;
9080;SDS011;13509;50.760;6.080;2023-04-06T04:32:24;13.30;;;6.87;;
9080;SDS011;13509;50.760;6.080;2023-04-06T04:34:55;12.63;;;6.60;;
9080;SDS011;13509;50.760;6.080;2023-04-06T04:37:23;12.57;;;6.80;;
9080;SDS011;13509;50.760;6.080;2023-04-06T04:39:51;12.07;;;7.37;;
9080;SDS011;13509;50.760;6.080;2023-04-06T04:42:19;12.37;;;6.50;;
9080;SDS011;13509;50.760;6.080;2023-04-06T04:44:48;13.20;;;6.93;;
9080;SDS011;13509;50.760;6.080;2023-04-06T04:47:16;13.30;;;7.23;;
9080;SDS011;13509;50.760;6.080;2023-04-06T04:49:44;18.70;;;7.30;;
9080;SDS011;13509;50.760;6.080;2023-04-06T04:52:14;11.80;;;6.50;;
9080;SDS011;13509;50.760;6.080;2023-04-06T04:54:42;13.17;;;7.67;;
9080;SDS011;13509;50.760;6.080;2023-04-06T04:57:13;14.10;;;7.37;;
9080;SDS011;13509;50.760;6.080;2023-04-06T04:59:42;12.17;;;6.77;;
9080;SDS011;13509;50.760;6.080;2023-04-06T05:02:10;11.30;;;7.43;;
9080;SDS011;13509;50.760;6.080;2023-04-06T05:04:39;14.23;;;7.50;;
9080;SDS011;13509;50.760;6.080;2023-04-06T05:07:07;11.97;;;7.00;;
9080;SDS011;13509;50.760;6.080;2023-04-06T05:09:37;12.37;;;6.80;;
9080;SDS011;13509;50.760;6.080;2023-04-06T05:12:05;14.03;;;7.63;;
9080;SDS011;13509;50.760;6.080;2023-04-06T05:14:34;14.70;;;7.50;;
9080;SDS011;13509;50.760;6.080;2023-04-06T05:17:02;11.93;;;7.47;;
9080;SDS011;13509;50.760;6.080;2023-04-06T05:19:30;15.00;;;7.57;;
9080;SDS011;13509;50.760;6.080;2023-04-06T05:21:59;14.33;;;7.63;;
9080;SDS011;13509;50.760;6.080;2023-04-06T05:24:27;12.80;;;7.57;;
9080;SDS011;13509;50.760;6.080;2023-04-06T05:26:57;12.37;;;7.53;;
9080;SDS011;13509;50.760;6.080;2023-04-06T05:29:26;10.40;;;7.00;;
9080;SDS011;13509;50.760;6.080;2023-04-06T05:31:54;11.03;;;6.77;;
9080;SDS011;13509;50.760;6.080;2023-04-06T05:34:23;12.73;;;7.47;;
9080;SDS011;13509;50.760;6.080;2023-04-06T05:36:51;10.97;;;6.80;;
9080;SDS011;13509;50.760;6.080;2023-04-06T05:39:20;14.43;;;7.50;;
9080;SDS011;13509;50.760;6.080;2023-04-06T05:41:48;11.40;;;7.07;;
9080;SDS011;13509;50.760;6.080;2023-04-06T05:44:18;13.20;;;7.17;;
9080;SDS011;13509;50.760;6.080;2023-04-06T05:46:46;11.73;;;6.90;;
9080;SDS011;13509;50.760;6.080;2023-04-06T05:49:14;14.03;;;7.30;;
9080;SDS011;13509;50.760;6.080;2023-04-06T05:51:43;11.73;;;6.80;;
9080;SDS011;13509;50.760;6.080;2023-04-06T05:54:11;12.33;;;7.83;;
9080;SDS011;13509;50.760;6.080;2023-04-06T05:56:39;11.83;;;6.80;;
9080;SDS011;13509;50.760;6.080;2023-04-06T05:59:07;13.50;;;6.97;;
9080;SDS011;13509;50.760;6.080;2023-04-06T06:01:37;12.93;;;7.20;;
9080;SDS011;13509;50.760;6.080;2023-04-06T06:04:06;11.37;;;6.63;;
9080;SDS011;13509;50.760;6.080;2023-04-06T06:06:34;9.23;;;6.60;;
9080;SDS011;13509;50.760;6.080;2023-04-06T06:09:02;11.50;;;6.97;;
9080;SDS011;13509;50.760;6.080;2023-04-06T06:11:31;12.70;;;7.53;;
9080;SDS011;13509;50.760;6.080;2023-04-06T06:13:59;14.00;;;6.63;;
9080;SDS011;13509;50.760;6.080;2023-04-06T06:16:28;12.70;;;6.97;;
9080;SDS011;13509;50.760;6.080;2023-04-06T06:18:57;17.47;;;7.23;;
9080;SDS011;13509;50.760;6.080;2023-04-06T06:21:26;10.93;;;6.30;;
9080;SDS011;13509;50.760;6.080;2023-04-06T06:23:54;13.23;;;6.80;;
9080;SDS011;13509;50.760;6.080;2023-04-06T06:26:22;14.00;;;6.87;;
9080;SDS011;13509;50.760;6.080;2023-04-06T06:28:50;10.50;;;6.97;;
9080;SDS011;13509;50.760;6.080;2023-04-06T06:31:19;13.60;;;7.20;;
9080;SDS011;13509;50.760;6.080;2023-04-06T06:33:49;14.43;;;6.93;;
9080;SDS011;13509;50.760;6.080;2023-04-06T06:36:18;11.43;;;7.27;;
9080;SDS011;13509;50.760;6.080;2023-04-06T06:38:47;15.57;;;7.63;;
9080;SDS011;13509;50.760;6.080;2023-04-06T06:41:15;11.37;;;6.90;;
9080;SDS011;13509;50.760;6.080;2023-04-06T06:43:43;16.60;;;8.03;;
9080;SDS011;13509;50.760;6.080;2023-04-06T06:46:12;12.00;;;6.87;;
9080;SDS011;13509;50.760;6.080;2023-04-06T06:48:40;13.43;;;7.70;;
9080;SDS011;13509;50.760;6.080;2023-04-06T06:51:08;16.13;;;8.47;;
9080;SDS011;13509;50.760;6.080;2023-04-06T06:53:39;14.27;;;7.93;;
9080;SDS011;13509;50.760;6.080;2023-04-06T06:56:07;14.67;;;7.73;;
9080;SDS011;13509;50.760;6.080;2023-04-06T06:58:35;12.57;;;6.87;;
9080;SDS011;13509;50.760;6.080;2023-04-06T07:01:04;14.97;;;7.27;;
9080;SDS011;13509;50.760;6.080;2023-04-06T07:03:32;17.90;;;7.37;;
9080;SDS011;13509;50.760;6.080;2023-04-06T07:06:00;14.23;;;7.07;;
9080;SDS011;13509;50.760;6.080;2023-04-06T07:08:29;14.13;;;7.83;;
9080;SDS011;13509;50.760;6.080;2023-04-06T07:10:58;15.00;;;7.70;;
9080;SDS011;13509;50.760;6.080;2023-04-06T07:13:27;13.50;;;6.97;;
9080;SDS011;13509;50.760;6.080;2023-04-06T07:15:55;14.40;;;7.57;;
9080;SDS011;13509;50.760;6.080;2023-04-06T07:18:24;13.77;;;7.20;;
9080;SDS011;13509;50.760;6.080;2023-04-06T07:20:52;13.97;;;7.60;;
9080;SDS011;13509;50.760;6.080;2023-04-06T07:23:20;13.53;;;7.43;;
9080;SDS011;13509;50.760;6.080;2023-04-06T07:25:48;17.43;;;8.20;;
9080;SDS011;13509;50.760;6.080;2023-04-06T07:28:21;11.50;;;7.27;;
9080;SDS011;13509;50.760;6.080;2023-04-06T07:30:49;16.30;;;7.70;;
9080;SDS011;13509;50.760;6.080;2023-04-06T07:33:17;16.30;;;7.93;;
9080;SDS011;13509;50.760;6.080;2023-04-06T07:35:46;14.07;;;7.53;;
9080;SDS011;13509;50.760;6.080;2023-04-06T07:38:14;13.47;;;7.73;;
9080;SDS011;13509;50.760;6.080;2023-04-06T07:40:42;12.37;;;7.27;;
9080;SDS011;13509;50.760;6.080;2023-04-06T07:43:11;13.63;;;7.77;;
9080;SDS011;13509;50.760;6.080;2023-04-06T07:45:41;13.07;;;7.30;;
9080;SDS011;13509;50.760;6.080;2023-04-06T07:48:09;14.23;;;7.70;;
9080;SDS011;13509;50.760;6.080;2023-04-06T07:50:37;11.67;;;7.10;;
9080;SDS011;13509;50.760;6.080;2023-04-06T07:53:06;13.93;;;6.97;;
9080;SDS011;13509;50.760;6.080;2023-04-06T07:55:35;12.93;;;7.33;;
9080;SDS011;13509;50.760;6.080;2023-04-06T07:58:03;11.27;;;7.33;;
9080;SDS011;13509;50.760;6.080;2023-04-06T08:00:31;13.70;;;7.60;;
9080;SDS011;13509;50.760;6.080;2023-04-06T08:03:01;13.07;;;7.60;;
9080;SDS011;13509;50.760;6.080;2023-04-06T08:05:29;14.40;;;8.40;;
9080;SDS011;13509;50.760;6.080;2023-04-06T08:07:58;12.93;;;7.27;;
9080;SDS011;13509;50.760;6.080;2023-04-06T08:10:26;16.77;;;7.67;;
9080;SDS011;13509;50.760;6.080;2023-04-06T08:12:54;14.63;;;7.40;;
9080;SDS011;13509;50.760;6.080;2023-04-06T08:15:22;14.33;;;8.47;;
9080;SDS011;13509;50.760;6.080;2023-04-06T08:17:51;17.63;;;7.80;;
9080;SDS011;13509;50.760;6.080;2023-04-06T08:20:24;14.97;;;7.83;;
9080;SDS011;13509;50.760;6.080;2023-04-06T08:22:53;13.57;;;7.90;;
9080;SDS011;13509;50.760;6.080;2023-04-06T08:25:21;13.53;;;7.63;;
9080;SDS011;13509;50.760;6.080;2023-04-06T08:27:49;15.53;;;8.03;;
9080;SDS011;13509;50.760;6.080;2023-04-06T08:30:18;12.90;;;7.63;;
9080;SDS011;13509;50.760;6.080;2023-04-06T08:32:47;11.93;;;7.13;;
9080;SDS011;13509;50.760;6.080;2023-04-06T08:35:16;14.40;;;8.30;;
9080;SDS011;13509;50.760;6.080;2023-04-06T08:37:46;12.97;;;7.80;;
9080;SDS011;13509;50.760;6.080;2023-04-06T08:40:14;12.37;;;7.23;;
9080;SDS011;13509;50.760;6.080;2023-04-06T08:42:44;13.70;;;7.67;;
9080;SDS011;13509;50.760;6.080;2023-04-06T08:45:15;15.30;;;8.40;;
9080;SDS011;13509;50.760;6.080;2023-04-06T08:47:44;14.90;;;7.90;;
9080;SDS011;13509;50.760;6.080;2023-04-06T08:50:12;11.13;;;7.40;;
9080;SDS011;13509;50.760;6.080;2023-04-06T08:52:41;15.00;;;8.30;;
9080;SDS011;13509;50.760;6.080;2023-04-06T08:55:12;12.90;;;7.60;;
9080;SDS011;13509;50.760;6.080;2023-04-06T08:57:40;11.00;;;7.27;;
9080;SDS011;13509;50.760;6.080;2023-04-06T09:00:10;13.30;;;7.50;;
9080;SDS011;13509;50.760;6.080;2023-04-06T09:02:39;12.77;;;7.30;;
9080;SDS011;13509;50.760;6.080;2023-04-06T09:05:08;15.97;;;8.93;;
9080;SDS011;13509;50.760;6.080;2023-04-06T09:07:37;11.83;;;7.50;;
9080;SDS011;13509;50.760;6.080;2023-04-06T09:10:05;14.17;;;8.40;;
9080;SDS011;13509;50.760;6.080;2023-04-06T09:12:35;15.70;;;8.67;;
9080;SDS011;13509;50.760;6.080;2023-04-06T09:15:04;16.97;;;9.00;;
9080;SDS011;13509;50.760;6.080;2023-04-06T09:17:32;12.73;;;8.27;;
9080;SDS011;13509;50.760;6.080;2023-04-06T09:20:03;15.23;;;8.73;;
9080;SDS011;13509;50.760;6.080;2023-04-06T09:22:35;15.33;;;8.30;;
9080;SDS011;13509;50.760;6.080;2023-04-06T09:25:03;16.80;;;8.77;;
9080;SDS011;13509;50.760;6.080;2023-04-06T09:27:32;21.40;;;8.73;;
9080;SDS011;13509;50.760;6.080;2023-04-06T09:30:06;17.00;;;8.90;;
9080;SDS011;13509;50.760;6.080;2023-04-06T09:32:45;18.70;;;9.43;;
9080;SDS011;13509;50.760;6.080;2023-04-06T09:35:14;17.00;;;9.07;;
9080;SDS011;13509;50.760;6.080;2023-04-06T09:37:42;15.73;;;8.50;;
9080;SDS011;13509;50.760;6.080;2023-04-06T09:40:12;15.17;;;9.23;;
9080;SDS011;13509;50.760;6.080;2023-04-06T09:42:41;17.57;;;9.67;;
9080;SDS011;13509;50.760;6.080;2023-04-06T09:45:11;14.97;;;9.33;;
9080;SDS011;13509;50.760;6.080;2023-04-06T09:47:39;19.60;;;10.20;;
9080;SDS011;13509;50.760;6.080;2023-04-06T09:50:08;16.77;;;8.70;;
9080;SDS011;13509;50.760;6.080;2023-04-06T09:52:37;18.20;;;9.70;;
9080;SDS011;13509;50.760;6.080;2023-04-06T09:55:06;15.30;;;9.83;;
9080;SDS011;13509;50.760;6.080;2023-04-06T09:57:37;15.73;;;8.70;;
9080;SDS011;13509;50.760;6.080;2023-04-06T10:00:06;17.00;;;8.97;;
9080;SDS011;13509;50.760;6.080;2023-04-06T10:02:41;13.33;;;8.03;;
9080;SDS011;13509;50.760;6.080;2023-04-06T10:05:15;12.90;;;7.90;;
9080;SDS011;13509;50.760;6.080;2023-04-06T10:07:44;12.50;;;7.53;;
9080;SDS011;13509;50.760;6.080;2023-04-06T10:10:26;13.63;;;8.60;;
9080;SDS011;13509;50.760;6.080;2023-04-06T10:12:55;11.27;;;7.03;;
9080;SDS011;13509;50.760;6.080;2023-04-06T10:15:24;11.17;;;7.07;;
9080;SDS011;13509;50.760;6.080;2023-04-06T10:17:53;17.37;;;8.03;;
9080;SDS011;13509;50.760;6.080;2023-04-06T10:20:23;15.07;;;8.30;;
9080;SDS011;13509;50.760;6.080;2023-04-06T10:22:53;10.77;;;7.13;;
9080;SDS011;13509;50.760;6.080;2023-04-06T10:25:26;10.23;;;7.10;;
9080;SDS011;13509;50.760;6.080;2023-04-06T10:28:01;12.30;;;7.73;;
9080;SDS011;13509;50.760;6.080;2023-04-06T10:30:29;13.10;;;8.50;;
9080;SDS011;13509;50.760;6.080;2023-04-06T10:32:59;11.53;;;7.53;;
9080;SDS011;13509;50.760;6.080;2023-04-06T10:35:36;14.83;;;7.70;;
9080;SDS011;13509;50.760;6.080;2023-04-06T10:38:05;10.00;;;6.53;;
9080;SDS011;13509;50.760;6.080;2023-04-06T10:40:35;11.07;;;6.77;;
9080;SDS011;13509;50.760;6.080;2023-04-06T10:43:07;11.23;;;7.10;;
9080;SDS011;13509;50.760;6.080;2023-04-06T10:45:36;13.27;;;7.57;;
9080;SDS011;13509;50.760;6.080;2023-04-06T10:48:15;12.67;;;6.93;;
9080;SDS011;13509;50.760;6.080;2023-04-06T10:50:44;12.37;;;7.00;;
9080;SDS011;13509;50.760;6.080;2023-04-06T10:53:20;12.00;;;6.60;;
9080;SDS011;13509;50.760;6.080;2023-04-06T10:55:49;12.10;;;7.00;;
9080;SDS011;13509;50.760;6.080;2023-04-06T10:58:17;11.60;;;7.10;;
9080;SDS011;13509;50.760;6.080;2023-04-06T11:00:46;10.93;;;7.40;;
9080;SDS011;13509;50.760;6.080;2023-04-06T11:03:18;12.63;;;7.67;;
9080;SDS011;13509;50.760;6.080;2023-04-06T11:05:46;15.03;;;8.40;;
9080;SDS011;13509;50.760;6.080;2023-04-06T11:08:27;13.53;;;7.90;;
9080;SDS011;13509;50.760;6.080;2023-04-06T11:11:05;11.23;;;7.47;;
9080;SDS011;13509;50.760;6.080;2023-04-06T11:13:38;11.97;;;7.07;;
9080;SDS011;13509;50.760;6.080;2023-04-06T11:16:06;12.63;;;7.93;;
9080;SDS011;13509;50.760;6.080;2023-04-06T11:18:36;12.47;;;7.50;;
9080;SDS011;13509;50.760;6.080;2023-04-06T11:21:05;11.20;;;7.37;;
9080;SDS011;13509;50.760;6.080;2023-04-06T11:23:33;8.63;;;6.70;;
9080;SDS011;13509;50.760;6.080;2023-04-06T11:26:01;11.00;;;6.63;;
9080;SDS011;13509;50.760;6.080;2023-04-06T11:28:30;11.50;;;6.77;;
9080;SDS011;13509;50.760;6.080;2023-04-06T11:30:58;11.10;;;7.43;;
9080;SDS011;13509;50.760;6.080;2023-04-06T11:33:27;9.77;;;6.77;;
9080;SDS011;13509;50.760;6.080;2023-04-06T11:35:58;10.67;;;6.67;;
9080;SDS011;13509;50.760;6.080;2023-04-06T11:38:26;10.27;;;6.77;;
9080;SDS011;13509;50.760;6.080;2023-04-06T11:40:55;12.47;;;7.67;;
9080;SDS011;13509;50.760;6.080;2023-04-06T11:43:25;13.07;;;7.30;;
9080;SDS011;13509;50.760;6.080;2023-04-06T11:45:59;11.67;;;7.70;;
9080;SDS011;13509;50.760;6.080;2023-04-06T11:48:28;12.13;;;7.33;;
9080;SDS011;13509;50.760;6.080;2023-04-06T11:50:58;11.87;;;7.37;;
9080;SDS011;13509;50.760;6.080;2023-04-06T11:53:27;11.80;;;6.90;;
9080;SDS011;13509;50.760;6.080;2023-04-06T11:55:56;10.20;;;7.40;;
9080;SDS011;13509;50.760;6.080;2023-04-06T11:58:25;11.40;;;7.43;;
9080;SDS011;13509;50.760;6.080;2023-04-06T12:00:54;13.10;;;7.40;;
9080;SDS011;13509;50.760;6.080;2023-04-06T12:03:30;13.33;;;7.67;;
9080;SDS011;13509;50.760;6.080;2023-04-06T12:06:00;13.90;;;8.03;;
9080;SDS011;13509;50.760;6.080;2023-04-06T12:08:28;13.63;;;7.80;;
9080;SDS011;13509;50.760;6.080;2023-04-06T12:10:57;12.93;;;7.80;;
9080;SDS011;13509;50.760;6.080;2023-04-06T12:13:26;13.20;;;7.57;;
9080;SDS011;13509;50.760;6.080;2023-04-06T12:15:55;11.90;;;8.07;;
9080;SDS011;13509;50.760;6.080;2023-04-06T12:18:24;11.30;;;7.37;;
9080;SDS011;13509;50.760;6.080;2023-04-06T12:20:52;10.63;;;7.13;;
9080;SDS011;13509;50.760;6.080;2023-04-06T12:23:22;10.47;;;7.47;;
9080;SDS011;13509;50.760;6.080;2023-04-06T12:25:50;10.47;;;6.30;;
9080;SDS011;13509;50.760;6.080;2023-04-06T12:28:19;11.27;;;7.20;;
9080;SDS011;13509;50.760;6.080;2023-04-06T12:30:50;10.50;;;7.30;;
9080;SDS011;13509;50.760;6.080;2023-04-06T12:33:18;14.20;;;7.10;;
9080;SDS011;13509;50.760;6.080;2023-04-06T12:35:47;10.83;;;7.47;;
9080;SDS011;13509;50.760;6.080;2023-04-06T12:38:15;10.47;;;6.73;;
9080;SDS011;13509;50.760;6.080;2023-04-06T12:40:45;10.37;;;6.90;;
9080;SDS011;13509;50.760;6.080;2023-04-06T12:43:13;8.73;;;6.40;;
9080;SDS011;13509;50.760;6.080;2023-04-06T12:45:41;10.27;;;6.43;;
9080;SDS011;13509;50.760;6.080;2023-04-06T12:48:10;9.40;;;6.03;;
9080;SDS011;13509;50.760;6.080;2023-04-06T12:50:38;10.40;;;5.70;;
9080;SDS011;13509;50.760;6.080;2023-04-06T12:53:06;8.23;;;5.70;;
9080;SDS011;13509;50.760;6.080;2023-04-06T12:55:34;9.03;;;6.20;;
9080;SDS011;13509;50.760;6.080;2023-04-06T12:58:04;7.93;;;5.43;;
9080;SDS011;13509;50.760;6.080;2023-04-06T13:00:32;10.07;;;6.67;;
9080;SDS011;13509;50.760;6.080;2023-04-06T13:03:01;12.17;;;6.10;;
9080;SDS011;13509;50.760;6.080;2023-04-06T13:05:29;9.73;;;5.97;;
9080;SDS011;13509;50.760;6.080;2023-04-06T13:07:58;7.47;;;5.33;;
9080;SDS011;13509;50.760;6.080;2023-04-06T13:10:27;7.03;;;5.50;;
9080;SDS011;13509;50.760;6.080;2023-04-06T13:12:55;9.07;;;5.53;;
9080;SDS011;13509;50.760;6.080;2023-04-06T13:15:25;8.43;;;4.83;;
9080;SDS011;13509;50.760;6.080;2023-04-06T13:17:53;7.77;;;5.67;;
9080;SDS011;13509;50.760;6.080;2023-04-06T13:20:22;7.97;;;5.10;;
9080;SDS011;13509;50.760;6.080;2023-04-06T13:22:50;6.63;;;4.90;;
9080;SDS011;13509;50.760;6.080;2023-04-06T13:25:19;8.53;;;5.70;;
9080;SDS011;13509;50.760;6.080;2023-04-06T13:27:47;7.20;;;5.17;;
9080;SDS011;13509;50.760;6.080;2023-04-06T13:30:16;8.50;;;5.30;;
9080;SDS011;13509;50.760;6.080;2023-04-06T13:32:45;7.03;;;5.37;;
9080;SDS011;13509;50.760;6.080;2023-04-06T13:35:14;7.23;;;4.90;;
9080;SDS011;13509;50.760;6.080;2023-04-06T13:37:43;5.97;;;4.73;;
9080;SDS011;13509;50.760;6.080;2023-04-06T13:40:11;7.43;;;4.33;;
9080;SDS011;13509;50.760;6.080;2023-04-06T13:42:40;6.53;;;5.10;;
9080;SDS011;13509;50.760;6.080;2023-04-06T13:45:10;6.23;;;4.73;;
9080;SDS011;13509;50.760;6.080;2023-04-06T13:47:38;5.77;;;4.67;;
9080;SDS011;13509;50.760;6.080;2023-04-06T13:50:09;5.97;;;4.57;;
9080;SDS011;13509;50.760;6.080;2023-04-06T13:52:37;6.43;;;5.40;;
9080;SDS011;13509;50.760;6.080;2023-04-06T13:55:05;7.23;;;5.60;;
9080;SDS011;13509;50.760;6.080;2023-04-06T13:57:34;7.47;;;4.90;;
9080;SDS011;13509;50.760;6.080;2023-04-06T14:00:04;7.43;;;4.80;;
9080;SDS011;13509;50.760;6.080;2023-04-06T14:02:33;7.67;;;4.70;;
9080;SDS011;13509;50.760;6.080;2023-04-06T14:05:02;6.57;;;4.80;;
9080;SDS011;13509;50.760;6.080;2023-04-06T14:07:31;5.80;;;4.60;;
9080;SDS011;13509;50.760;6.080;2023-04-06T14:10:00;5.60;;;4.60;;
9080;SDS011;13509;50.760;6.080;2023-04-06T14:12:28;4.60;;;4.07;;
9080;SDS011;13509;50.760;6.080;2023-04-06T14:14:57;6.07;;;4.83;;
9080;SDS011;13509;50.760;6.080;2023-04-06T14:17:26;5.67;;;4.07;;
9080;SDS011;13509;50.760;6.080;2023-04-06T14:19:54;6.60;;;4.13;;
9080;SDS011;13509;50.760;6.080;2023-04-06T14:22:22;6.77;;;4.53;;
9080;SDS011;13509;50.760;6.080;2023-04-06T14:24:52;4.70;;;3.90;;
9080;SDS011;13509;50.760;6.080;2023-04-06T14:27:20;5.87;;;3.90;;
9080;SDS011;13509;50.760;6.080;2023-04-06T14:29:49;5.33;;;4.10;;
9080;SDS011;13509;50.760;6.080;2023-04-06T14:32:17;5.87;;;4.00;;
9080;SDS011;13509;50.760;6.080;2023-04-06T14:34:45;5.63;;;4.33;;
9080;SDS011;13509;50.760;6.080;2023-04-06T14:37:13;4.77;;;3.80;;
9080;SDS011;13509;50.760;6.080;2023-04-06T14:39:43;4.03;;;3.43;;
9080;SDS011;13509;50.760;6.080;2023-04-06T14:42:13;5.67;;;4.10;;
9080;SDS011;13509;50.760;6.080;2023-04-06T14:44:41;4.37;;;3.53;;
9080;SDS011;13509;50.760;6.080;2023-04-06T14:47:11;4.77;;;3.60;;
9080;SDS011;13509;50.760;6.080;2023-04-06T14:49:41;3.60;;;3.10;;
9080;SDS011;13509;50.760;6.080;2023-04-06T14:52:10;3.93;;;3.10;;
9080;SDS011;13509;50.760;6.080;2023-04-06T14:54:38;3.13;;;2.83;;
9080;SDS011;13509;50.760;6.080;2023-04-06T14:57:06;3.10;;;2.80;;
9080;SDS011;13509;50.760;6.080;2023-04-06T14:59:35;4.23;;;2.90;;
9080;SDS011;13509;50.760;6.080;2023-04-06T15:02:05;4.40;;;2.80;;